sensor_id;sensor_type;location;lat;lon;timestamp;temperature;humidity
57026;DHT22;43961;52.940;6.834;2022-11-20T00:00:53;-1.70;99.90
57026;DHT22;43961;52.940;6.834;2022-11-20T00:03:19;-1.70;99.90
57026;DHT22;43961;52.940;6.834;2022-11-20T00:05:45;-1.70;99.90
57026;DHT22;43961;52.940;6.834;2022-11-20T00:08:11;-1.60;99.90
57026;DHT22;43961;52.940;6.834;2022-11-20T00:10:37;-1.60;99.90
57026;DHT22;43961;52.940;6.834;2022-11-20T00:13:03;-1.60;99.90
57026;DHT22;43961;52.940;6.834;2022-11-20T00:15:29;-1.50;99.90
57026;DHT22;43961;52.940;6.834;2022-11-20T00:17:55;-1.50;99.90
57026;DHT22;43961;52.940;6.834;2022-11-20T00:20:20;-1.50;99.90
57026;DHT22;43961;52.940;6.834;2022-11-20T00:22:47;-1.40;99.90
57026;DHT22;43961;52.940;6.834;2022-11-20T00:25:13;-1.40;99.90
57026;DHT22;43961;52.940;6.834;2022-11-20T00:27:39;-1.40;99.90
57026;DHT22;43961;52.940;6.834;2022-11-20T00:30:05;-1.30;99.90
57026;DHT22;43961;52.940;6.834;2022-11-20T00:32:31;-1.30;99.90
57026;DHT22;43961;52.940;6.834;2022-11-20T00:34:57;-1.30;99.90
57026;DHT22;43961;52.940;6.834;2022-11-20T00:37:22;-1.20;99.90
57026;DHT22;43961;52.940;6.834;2022-11-20T00:39:48;-1.20;99.90
57026;DHT22;43961;52.940;6.834;2022-11-20T00:42:13;-1.20;99.90
57026;DHT22;43961;52.940;6.834;2022-11-20T00:44:39;-1.10;99.90
57026;DHT22;43961;52.940;6.834;2022-11-20T00:47:05;-1.10;99.90
57026;DHT22;43961;52.940;6.834;2022-11-20T00:49:30;-1.10;99.90
57026;DHT22;43961;52.940;6.834;2022-11-20T00:51:56;-1.10;99.90
57026;DHT22;43961;52.940;6.834;2022-11-20T00:54:22;-1.00;99.90
57026;DHT22;43961;52.940;6.834;2022-11-20T00:56:47;-1.00;99.90
57026;DHT22;43961;52.940;6.834;2022-11-20T00:59:13;-1.00;99.90
57026;DHT22;43961;52.940;6.834;2022-11-20T01:01:39;-0.90;99.90
57026;DHT22;43961;52.940;6.834;2022-11-20T01:04:05;-0.90;99.90
57026;DHT22;43961;52.940;6.834;2022-11-20T01:06:34;-0.90;99.90
57026;DHT22;43961;52.940;6.834;2022-11-20T01:09:11;-0.90;99.90
57026;DHT22;43961;52.940;6.834;2022-11-20T01:11:39;-0.90;99.90
57026;DHT22;43961;52.940;6.834;2022-11-20T01:14:07;-0.80;99.90
57026;DHT22;43961;52.940;6.834;2022-11-20T01:16:46;-0.80;99.90
57026;DHT22;43961;52.940;6.834;2022-11-20T01:19:14;-0.80;99.90
57026;DHT22;43961;52.940;6.834;2022-11-20T01:21:42;-0.80;99.90
57026;DHT22;43961;52.940;6.834;2022-11-20T01:24:11;-0.80;99.90
57026;DHT22;43961;52.940;6.834;2022-11-20T01:26:39;-0.80;99.90
57026;DHT22;43961;52.940;6.834;2022-11-20T01:29:06;-0.70;99.90
57026;DHT22;43961;52.940;6.834;2022-11-20T01:31:35;-0.70;99.90
57026;DHT22;43961;52.940;6.834;2022-11-20T01:34:04;-0.70;99.90
57026;DHT22;43961;52.940;6.834;2022-11-20T01:36:31;-0.70;99.90
57026;DHT22;43961;52.940;6.834;2022-11-20T01:38:59;-0.70;99.90
57026;DHT22;43961;52.940;6.834;2022-11-20T01:41:26;-0.70;99.90
57026;DHT22;43961;52.940;6.834;2022-11-20T01:44:13;-0.60;99.90
57026;DHT22;43961;52.940;6.834;2022-11-20T01:46:46;-0.60;99.90
57026;DHT22;43961;52.940;6.834;2022-11-20T01:49:19;-0.60;99.90
57026;DHT22;43961;52.940;6.834;2022-11-20T01:51:55;-0.60;99.90
57026;DHT22;43961;52.940;6.834;2022-11-20T01:54:26;-0.60;99.90
57026;DHT22;43961;52.940;6.834;2022-11-20T01:56:56;-0.60;99.90
57026;DHT22;43961;52.940;6.834;2022-11-20T01:59:23;-0.50;99.90
57026;DHT22;43961;52.940;6.834;2022-11-20T02:01:50;-0.50;99.90
57026;DHT22;43961;52.940;6.834;2022-11-20T02:04:16;-0.50;99.90
57026;DHT22;43961;52.940;6.834;2022-11-20T02:06:45;-0.50;99.90
57026;DHT22;43961;52.940;6.834;2022-11-20T02:09:13;-0.50;99.90
57026;DHT22;43961;52.940;6.834;2022-11-20T02:11:39;-0.50;99.90
57026;DHT22;43961;52.940;6.834;2022-11-20T02:14:05;-0.50;99.90
57026;DHT22;43961;52.940;6.834;2022-11-20T02:16:34;-0.50;99.90
57026;DHT22;43961;52.940;6.834;2022-11-20T02:19:02;-0.50;99.90
57026;DHT22;43961;52.940;6.834;2022-11-20T02:21:57;-0.40;99.90
57026;DHT22;43961;52.940;6.834;2022-11-20T02:24:26;-0.50;99.90
57026;DHT22;43961;52.940;6.834;2022-11-20T02:27:13;-0.50;99.90
57026;DHT22;43961;52.940;6.834;2022-11-20T02:29:46;-0.50;99.90
57026;DHT22;43961;52.940;6.834;2022-11-20T02:32:31;-0.40;99.90
57026;DHT22;43961;52.940;6.834;2022-11-20T02:34:57;-0.40;99.90
57026;DHT22;43961;52.940;6.834;2022-11-20T02:37:32;-0.40;99.90
57026;DHT22;43961;52.940;6.834;2022-11-20T02:39:58;-0.40;99.90
57026;DHT22;43961;52.940;6.834;2022-11-20T02:42:23;-0.40;99.90
57026;DHT22;43961;52.940;6.834;2022-11-20T02:44:49;-0.30;99.90
57026;DHT22;43961;52.940;6.834;2022-11-20T02:47:14;-0.30;99.90
57026;DHT22;43961;52.940;6.834;2022-11-20T02:49:40;-0.30;99.90
57026;DHT22;43961;52.940;6.834;2022-11-20T02:52:06;-0.30;99.90
57026;DHT22;43961;52.940;6.834;2022-11-20T02:54:31;-0.30;99.90
57026;DHT22;43961;52.940;6.834;2022-11-20T02:56:57;-0.30;99.90
57026;DHT22;43961;52.940;6.834;2022-11-20T02:59:23;-0.30;99.90
57026;DHT22;43961;52.940;6.834;2022-11-20T03:01:48;-0.30;99.90
57026;DHT22;43961;52.940;6.834;2022-11-20T03:04:14;-0.30;99.90
57026;DHT22;43961;52.940;6.834;2022-11-20T03:06:39;-0.20;99.90
57026;DHT22;43961;52.940;6.834;2022-11-20T03:09:05;-0.20;99.90
57026;DHT22;43961;52.940;6.834;2022-11-20T03:11:31;-0.20;99.90
57026;DHT22;43961;52.940;6.834;2022-11-20T03:13:57;-0.20;99.90
57026;DHT22;43961;52.940;6.834;2022-11-20T03:16:23;-0.20;99.90
57026;DHT22;43961;52.940;6.834;2022-11-20T03:18:49;-0.20;99.90
57026;DHT22;43961;52.940;6.834;2022-11-20T03:21:17;-0.20;99.90
57026;DHT22;43961;52.940;6.834;2022-11-20T03:23:43;-0.20;99.90
57026;DHT22;43961;52.940;6.834;2022-11-20T03:26:09;-0.10;99.90
57026;DHT22;43961;52.940;6.834;2022-11-20T03:28:35;-0.10;99.90
57026;DHT22;43961;52.940;6.834;2022-11-20T03:31:13;-0.10;99.90
57026;DHT22;43961;52.940;6.834;2022-11-20T03:33:40;-0.10;99.90
57026;DHT22;43961;52.940;6.834;2022-11-20T03:36:09;-0.20;99.90
57026;DHT22;43961;52.940;6.834;2022-11-20T03:38:36;-0.10;99.90
57026;DHT22;43961;52.940;6.834;2022-11-20T03:41:05;-0.10;99.90
57026;DHT22;43961;52.940;6.834;2022-11-20T03:43:31;-0.10;99.90
57026;DHT22;43961;52.940;6.834;2022-11-20T03:45:57;-0.10;99.90
57026;DHT22;43961;52.940;6.834;2022-11-20T03:48:23;-0.10;99.90
57026;DHT22;43961;52.940;6.834;2022-11-20T03:50:50;-0.10;99.90
57026;DHT22;43961;52.940;6.834;2022-11-20T03:53:16;-0.10;99.90
57026;DHT22;43961;52.940;6.834;2022-11-20T03:55:42;0.00;99.90
57026;DHT22;43961;52.940;6.834;2022-11-20T03:58:08;0.00;99.90
57026;DHT22;43961;52.940;6.834;2022-11-20T04:00:34;0.00;99.90
57026;DHT22;43961;52.940;6.834;2022-11-20T04:03:00;0.00;99.90
57026;DHT22;43961;52.940;6.834;2022-11-20T04:05:26;0.00;99.90
57026;DHT22;43961;52.940;6.834;2022-11-20T04:07:51;0.00;99.90
57026;DHT22;43961;52.940;6.834;2022-11-20T04:10:17;0.00;99.90
57026;DHT22;43961;52.940;6.834;2022-11-20T04:12:43;0.00;99.90
57026;DHT22;43961;52.940;6.834;2022-11-20T04:15:09;0.00;99.90
57026;DHT22;43961;52.940;6.834;2022-11-20T04:17:35;0.00;99.90
57026;DHT22;43961;52.940;6.834;2022-11-20T04:20:02;0.00;99.90
57026;DHT22;43961;52.940;6.834;2022-11-20T04:22:27;0.00;99.90
57026;DHT22;43961;52.940;6.834;2022-11-20T04:24:53;0.00;99.90
57026;DHT22;43961;52.940;6.834;2022-11-20T04:27:19;0.00;99.90
57026;DHT22;43961;52.940;6.834;2022-11-20T04:29:44;0.00;99.90
57026;DHT22;43961;52.940;6.834;2022-11-20T04:32:10;0.00;99.90
57026;DHT22;43961;52.940;6.834;2022-11-20T04:34:36;0.10;99.90
57026;DHT22;43961;52.940;6.834;2022-11-20T04:37:01;0.10;99.90
57026;DHT22;43961;52.940;6.834;2022-11-20T04:39:27;0.10;99.90
57026;DHT22;43961;52.940;6.834;2022-11-20T04:41:52;0.10;99.90
57026;DHT22;43961;52.940;6.834;2022-11-20T04:44:38;0.10;99.90
57026;DHT22;43961;52.940;6.834;2022-11-20T04:47:04;0.10;99.90
57026;DHT22;43961;52.940;6.834;2022-11-20T04:49:29;0.10;99.90
57026;DHT22;43961;52.940;6.834;2022-11-20T04:51:57;0.10;99.90
57026;DHT22;43961;52.940;6.834;2022-11-20T04:54:23;0.10;99.90
57026;DHT22;43961;52.940;6.834;2022-11-20T04:56:49;0.10;99.90
57026;DHT22;43961;52.940;6.834;2022-11-20T04:59:14;0.10;99.90
57026;DHT22;43961;52.940;6.834;2022-11-20T05:01:40;0.20;99.90
57026;DHT22;43961;52.940;6.834;2022-11-20T05:04:06;0.20;99.90
57026;DHT22;43961;52.940;6.834;2022-11-20T05:06:33;0.20;99.90
57026;DHT22;43961;52.940;6.834;2022-11-20T05:08:59;0.20;99.90
57026;DHT22;43961;52.940;6.834;2022-11-20T05:11:26;0.20;99.90
57026;DHT22;43961;52.940;6.834;2022-11-20T05:13:54;0.20;99.90
57026;DHT22;43961;52.940;6.834;2022-11-20T05:16:22;0.20;99.90
57026;DHT22;43961;52.940;6.834;2022-11-20T05:18:49;0.20;99.90
57026;DHT22;43961;52.940;6.834;2022-11-20T05:21:16;0.20;99.90
57026;DHT22;43961;52.940;6.834;2022-11-20T05:23:43;0.20;99.90
57026;DHT22;43961;52.940;6.834;2022-11-20T05:26:14;0.20;99.90
57026;DHT22;43961;52.940;6.834;2022-11-20T05:28:40;0.20;99.90
57026;DHT22;43961;52.940;6.834;2022-11-20T05:31:06;0.20;99.90
57026;DHT22;43961;52.940;6.834;2022-11-20T05:33:34;0.20;99.90
57026;DHT22;43961;52.940;6.834;2022-11-20T05:36:00;0.20;99.90
57026;DHT22;43961;52.940;6.834;2022-11-20T05:38:26;0.20;99.90
57026;DHT22;43961;52.940;6.834;2022-11-20T05:40:52;0.20;99.90
57026;DHT22;43961;52.940;6.834;2022-11-20T05:43:19;0.20;99.90
57026;DHT22;43961;52.940;6.834;2022-11-20T05:45:54;0.20;99.90
57026;DHT22;43961;52.940;6.834;2022-11-20T05:48:21;0.20;99.90
57026;DHT22;43961;52.940;6.834;2022-11-20T05:50:47;0.20;99.90
57026;DHT22;43961;52.940;6.834;2022-11-20T05:53:13;0.20;99.90
57026;DHT22;43961;52.940;6.834;2022-11-20T05:55:39;0.20;99.90
57026;DHT22;43961;52.940;6.834;2022-11-20T05:58:04;0.30;99.90
57026;DHT22;43961;52.940;6.834;2022-11-20T06:00:30;0.30;99.90
57026;DHT22;43961;52.940;6.834;2022-11-20T06:02:55;0.30;99.90
57026;DHT22;43961;52.940;6.834;2022-11-20T06:05:21;0.30;99.90
57026;DHT22;43961;52.940;6.834;2022-11-20T06:07:47;0.30;99.90
57026;DHT22;43961;52.940;6.834;2022-11-20T06:10:13;0.30;99.90
57026;DHT22;43961;52.940;6.834;2022-11-20T06:12:38;0.30;99.90
57026;DHT22;43961;52.940;6.834;2022-11-20T06:15:05;0.30;99.90
57026;DHT22;43961;52.940;6.834;2022-11-20T06:17:31;0.30;99.90
57026;DHT22;43961;52.940;6.834;2022-11-20T06:19:56;0.30;99.90
57026;DHT22;43961;52.940;6.834;2022-11-20T06:22:22;0.30;99.90
57026;DHT22;43961;52.940;6.834;2022-11-20T06:24:48;0.30;99.90
57026;DHT22;43961;52.940;6.834;2022-11-20T06:27:13;0.30;99.90
57026;DHT22;43961;52.940;6.834;2022-11-20T06:29:40;0.30;99.90
57026;DHT22;43961;52.940;6.834;2022-11-20T06:32:06;0.30;99.90
57026;DHT22;43961;52.940;6.834;2022-11-20T06:34:31;0.30;99.90
57026;DHT22;43961;52.940;6.834;2022-11-20T06:36:57;0.30;99.90
57026;DHT22;43961;52.940;6.834;2022-11-20T06:39:22;0.30;99.90
57026;DHT22;43961;52.940;6.834;2022-11-20T06:41:48;0.30;99.90
57026;DHT22;43961;52.940;6.834;2022-11-20T06:44:13;0.30;99.90
57026;DHT22;43961;52.940;6.834;2022-11-20T06:46:39;0.30;99.90
57026;DHT22;43961;52.940;6.834;2022-11-20T06:49:05;0.30;99.90
57026;DHT22;43961;52.940;6.834;2022-11-20T06:51:31;0.30;99.90
57026;DHT22;43961;52.940;6.834;2022-11-20T06:53:57;0.30;99.90
57026;DHT22;43961;52.940;6.834;2022-11-20T06:56:23;0.40;99.90
57026;DHT22;43961;52.940;6.834;2022-11-20T06:58:48;0.30;99.90
57026;DHT22;43961;52.940;6.834;2022-11-20T07:01:14;0.30;99.90
57026;DHT22;43961;52.940;6.834;2022-11-20T07:03:42;0.30;99.90
57026;DHT22;43961;52.940;6.834;2022-11-20T07:06:08;0.40;99.90
57026;DHT22;43961;52.940;6.834;2022-11-20T07:08:35;0.30;99.90
57026;DHT22;43961;52.940;6.834;2022-11-20T07:11:04;0.30;99.90
57026;DHT22;43961;52.940;6.834;2022-11-20T07:13:30;0.40;99.90
57026;DHT22;43961;52.940;6.834;2022-11-20T07:16:03;0.40;99.90
57026;DHT22;43961;52.940;6.834;2022-11-20T07:18:29;0.40;99.90
57026;DHT22;43961;52.940;6.834;2022-11-20T07:20:55;0.40;99.90
57026;DHT22;43961;52.940;6.834;2022-11-20T07:23:21;0.40;99.90
57026;DHT22;43961;52.940;6.834;2022-11-20T07:25:47;0.40;99.90
57026;DHT22;43961;52.940;6.834;2022-11-20T07:28:12;0.40;99.90
57026;DHT22;43961;52.940;6.834;2022-11-20T07:30:39;0.40;99.90
57026;DHT22;43961;52.940;6.834;2022-11-20T07:33:04;0.40;99.90
57026;DHT22;43961;52.940;6.834;2022-11-20T07:35:30;0.40;99.90
57026;DHT22;43961;52.940;6.834;2022-11-20T07:37:55;0.40;99.90
57026;DHT22;43961;52.940;6.834;2022-11-20T07:40:21;0.50;99.90
57026;DHT22;43961;52.940;6.834;2022-11-20T07:42:48;0.50;99.90
57026;DHT22;43961;52.940;6.834;2022-11-20T07:45:14;0.50;99.90
57026;DHT22;43961;52.940;6.834;2022-11-20T07:47:39;0.50;99.90
57026;DHT22;43961;52.940;6.834;2022-11-20T07:50:05;0.50;99.90
57026;DHT22;43961;52.940;6.834;2022-11-20T07:52:31;0.50;99.90
57026;DHT22;43961;52.940;6.834;2022-11-20T07:54:57;0.50;99.90
57026;DHT22;43961;52.940;6.834;2022-11-20T07:57:22;0.50;99.90
57026;DHT22;43961;52.940;6.834;2022-11-20T07:59:48;0.50;99.90
57026;DHT22;43961;52.940;6.834;2022-11-20T08:02:13;0.50;99.90
57026;DHT22;43961;52.940;6.834;2022-11-20T08:04:39;0.50;99.90
57026;DHT22;43961;52.940;6.834;2022-11-20T08:07:05;0.50;99.90
57026;DHT22;43961;52.940;6.834;2022-11-20T08:09:30;0.50;99.90
57026;DHT22;43961;52.940;6.834;2022-11-20T08:11:56;0.50;99.90
57026;DHT22;43961;52.940;6.834;2022-11-20T08:14:40;0.60;99.90
57026;DHT22;43961;52.940;6.834;2022-11-20T08:17:06;0.60;99.90
57026;DHT22;43961;52.940;6.834;2022-11-20T08:19:32;0.60;99.90
57026;DHT22;43961;52.940;6.834;2022-11-20T08:21:58;0.60;99.90
57026;DHT22;43961;52.940;6.834;2022-11-20T08:24:23;0.60;99.90
57026;DHT22;43961;52.940;6.834;2022-11-20T08:26:52;0.70;99.90
57026;DHT22;43961;52.940;6.834;2022-11-20T08:29:17;0.70;99.90
57026;DHT22;43961;52.940;6.834;2022-11-20T08:31:43;0.70;99.90
57026;DHT22;43961;52.940;6.834;2022-11-20T08:34:09;0.70;99.90
57026;DHT22;43961;52.940;6.834;2022-11-20T08:36:34;0.70;99.90
57026;DHT22;43961;52.940;6.834;2022-11-20T08:39:00;0.70;99.90
57026;DHT22;43961;52.940;6.834;2022-11-20T08:41:26;0.70;99.90
57026;DHT22;43961;52.940;6.834;2022-11-20T08:44:03;0.70;99.90
57026;DHT22;43961;52.940;6.834;2022-11-20T08:46:35;0.80;99.90
57026;DHT22;43961;52.940;6.834;2022-11-20T08:49:10;0.80;99.90
57026;DHT22;43961;52.940;6.834;2022-11-20T08:51:37;0.80;99.90
57026;DHT22;43961;52.940;6.834;2022-11-20T08:54:03;0.80;99.90
57026;DHT22;43961;52.940;6.834;2022-11-20T08:56:29;0.80;99.90
57026;DHT22;43961;52.940;6.834;2022-11-20T08:58:55;0.90;99.90
57026;DHT22;43961;52.940;6.834;2022-11-20T09:01:22;0.90;99.90
57026;DHT22;43961;52.940;6.834;2022-11-20T09:03:49;1.00;99.90
57026;DHT22;43961;52.940;6.834;2022-11-20T09:06:15;1.00;99.90
57026;DHT22;43961;52.940;6.834;2022-11-20T09:08:41;1.00;99.90
57026;DHT22;43961;52.940;6.834;2022-11-20T09:11:07;1.00;99.90
57026;DHT22;43961;52.940;6.834;2022-11-20T09:13:35;1.00;99.90
57026;DHT22;43961;52.940;6.834;2022-11-20T09:16:04;1.00;99.90
57026;DHT22;43961;52.940;6.834;2022-11-20T09:18:31;1.00;99.90
57026;DHT22;43961;52.940;6.834;2022-11-20T09:21:02;1.00;99.90
57026;DHT22;43961;52.940;6.834;2022-11-20T09:23:31;1.10;99.90
57026;DHT22;43961;52.940;6.834;2022-11-20T09:25:58;1.10;99.90
57026;DHT22;43961;52.940;6.834;2022-11-20T09:28:25;1.10;99.90
57026;DHT22;43961;52.940;6.834;2022-11-20T09:30:51;1.10;99.90
57026;DHT22;43961;52.940;6.834;2022-11-20T09:33:17;1.10;99.90
57026;DHT22;43961;52.940;6.834;2022-11-20T09:35:43;1.10;99.90
57026;DHT22;43961;52.940;6.834;2022-11-20T09:38:10;1.10;99.90
57026;DHT22;43961;52.940;6.834;2022-11-20T09:40:40;1.20;99.90
57026;DHT22;43961;52.940;6.834;2022-11-20T09:43:19;1.20;99.90
57026;DHT22;43961;52.940;6.834;2022-11-20T09:54:21;1.30;99.90
57026;DHT22;43961;52.940;6.834;2022-11-20T09:56:54;1.30;99.90
57026;DHT22;43961;52.940;6.834;2022-11-20T09:59:29;1.40;99.90
57026;DHT22;43961;52.940;6.834;2022-11-20T10:01:57;1.40;99.90
57026;DHT22;43961;52.940;6.834;2022-11-20T10:04:24;1.40;99.90
57026;DHT22;43961;52.940;6.834;2022-11-20T10:09:31;1.50;99.90
57026;DHT22;43961;52.940;6.834;2022-11-20T10:25:47;1.60;99.90
57026;DHT22;43961;52.940;6.834;2022-11-20T10:31:11;1.80;99.90
57026;DHT22;43961;52.940;6.834;2022-11-20T10:33:43;1.80;99.90
57026;DHT22;43961;52.940;6.834;2022-11-20T10:36:21;1.90;99.90
57026;DHT22;43961;52.940;6.834;2022-11-20T10:39:00;1.90;99.90
57026;DHT22;43961;52.940;6.834;2022-11-20T10:41:30;2.00;99.90
57026;DHT22;43961;52.940;6.834;2022-11-20T10:44:15;2.20;99.90
57026;DHT22;43961;52.940;6.834;2022-11-20T10:47:00;2.20;99.90
57026;DHT22;43961;52.940;6.834;2022-11-20T10:49:54;2.30;99.90
57026;DHT22;43961;52.940;6.834;2022-11-20T11:00:47;2.50;99.90
57026;DHT22;43961;52.940;6.834;2022-11-20T11:03:29;2.60;99.90
57026;DHT22;43961;52.940;6.834;2022-11-20T11:06:03;2.60;99.90
57026;DHT22;43961;52.940;6.834;2022-11-20T11:08:35;2.70;99.90
57026;DHT22;43961;52.940;6.834;2022-11-20T11:13:39;2.80;99.90
57026;DHT22;43961;52.940;6.834;2022-11-20T11:16:05;2.80;99.90
57026;DHT22;43961;52.940;6.834;2022-11-20T11:18:33;2.80;99.90
57026;DHT22;43961;52.940;6.834;2022-11-20T11:21:01;2.80;99.90
57026;DHT22;43961;52.940;6.834;2022-11-20T11:23:41;2.90;99.90
57026;DHT22;43961;52.940;6.834;2022-11-20T11:26:20;2.80;99.90
57026;DHT22;43961;52.940;6.834;2022-11-20T11:29:03;2.80;99.90
57026;DHT22;43961;52.940;6.834;2022-11-20T11:31:31;2.90;99.90
57026;DHT22;43961;52.940;6.834;2022-11-20T11:34:08;2.90;99.90
57026;DHT22;43961;52.940;6.834;2022-11-20T11:36:37;2.90;99.90
57026;DHT22;43961;52.940;6.834;2022-11-20T11:39:04;2.90;99.90
57026;DHT22;43961;52.940;6.834;2022-11-20T11:41:33;2.90;99.90
57026;DHT22;43961;52.940;6.834;2022-11-20T11:47:11;3.00;99.90
57026;DHT22;43961;52.940;6.834;2022-11-20T11:49:44;3.00;99.90
57026;DHT22;43961;52.940;6.834;2022-11-20T11:52:18;3.00;99.90
57026;DHT22;43961;52.940;6.834;2022-11-20T11:54:55;3.00;99.90
57026;DHT22;43961;52.940;6.834;2022-11-20T11:57:48;3.00;99.90
57026;DHT22;43961;52.940;6.834;2022-11-20T12:00:17;3.00;99.90
57026;DHT22;43961;52.940;6.834;2022-11-20T12:08:18;3.00;99.90
57026;DHT22;43961;52.940;6.834;2022-11-20T12:11:06;3.00;99.90
57026;DHT22;43961;52.940;6.834;2022-11-20T12:13:42;3.10;99.90
57026;DHT22;43961;52.940;6.834;2022-11-20T12:16:13;3.00;99.90
57026;DHT22;43961;52.940;6.834;2022-11-20T12:18:39;3.10;99.90
57026;DHT22;43961;52.940;6.834;2022-11-20T12:27:02;3.00;99.90
57026;DHT22;43961;52.940;6.834;2022-11-20T12:30:00;3.00;99.90
57026;DHT22;43961;52.940;6.834;2022-11-20T12:35:50;3.00;99.90
57026;DHT22;43961;52.940;6.834;2022-11-20T12:44:27;3.10;99.90
57026;DHT22;43961;52.940;6.834;2022-11-20T12:50:02;3.20;99.90
57026;DHT22;43961;52.940;6.834;2022-11-20T12:52:47;3.30;99.90
57026;DHT22;43961;52.940;6.834;2022-11-20T13:00:36;3.40;99.90
57026;DHT22;43961;52.940;6.834;2022-11-20T13:03:34;3.40;99.90
57026;DHT22;43961;52.940;6.834;2022-11-20T13:06:20;3.40;99.90
57026;DHT22;43961;52.940;6.834;2022-11-20T13:08:56;3.40;99.90
57026;DHT22;43961;52.940;6.834;2022-11-20T13:14:09;3.50;99.90
57026;DHT22;43961;52.940;6.834;2022-11-20T13:19:25;3.60;99.90
57026;DHT22;43961;52.940;6.834;2022-11-20T13:21:54;3.50;99.90
57026;DHT22;43961;52.940;6.834;2022-11-20T13:24:21;3.60;99.90
57026;DHT22;43961;52.940;6.834;2022-11-20T13:27:20;3.60;99.90
57026;DHT22;43961;52.940;6.834;2022-11-20T13:29:58;3.60;99.90
57026;DHT22;43961;52.940;6.834;2022-11-20T13:32:26;3.60;99.90
57026;DHT22;43961;52.940;6.834;2022-11-20T13:35:02;3.60;99.90
57026;DHT22;43961;52.940;6.834;2022-11-20T13:37:35;3.60;99.90
57026;DHT22;43961;52.940;6.834;2022-11-20T13:42:46;3.60;99.90
57026;DHT22;43961;52.940;6.834;2022-11-20T13:45:28;3.60;99.90
57026;DHT22;43961;52.940;6.834;2022-11-20T13:47:55;3.60;99.90
57026;DHT22;43961;52.940;6.834;2022-11-20T13:50:37;3.60;99.90
57026;DHT22;43961;52.940;6.834;2022-11-20T13:53:29;3.70;99.90
57026;DHT22;43961;52.940;6.834;2022-11-20T13:58:57;3.60;99.90
57026;DHT22;43961;52.940;6.834;2022-11-20T14:01:28;3.60;99.90
57026;DHT22;43961;52.940;6.834;2022-11-20T14:03:57;3.60;99.90
57026;DHT22;43961;52.940;6.834;2022-11-20T14:06:33;3.50;99.90
57026;DHT22;43961;52.940;6.834;2022-11-20T14:09:00;3.50;99.90
57026;DHT22;43961;52.940;6.834;2022-11-20T14:11:28;3.50;99.90
57026;DHT22;43961;52.940;6.834;2022-11-20T14:14:04;3.50;99.90
57026;DHT22;43961;52.940;6.834;2022-11-20T14:16:34;3.50;99.90
57026;DHT22;43961;52.940;6.834;2022-11-20T14:19:27;3.50;99.90
57026;DHT22;43961;52.940;6.834;2022-11-20T14:22:17;3.40;99.90
57026;DHT22;43961;52.940;6.834;2022-11-20T14:24:46;3.40;99.90
57026;DHT22;43961;52.940;6.834;2022-11-20T14:27:16;3.40;99.90
57026;DHT22;43961;52.940;6.834;2022-11-20T14:29:44;3.30;99.90
57026;DHT22;43961;52.940;6.834;2022-11-20T14:32:10;3.30;99.90
57026;DHT22;43961;52.940;6.834;2022-11-20T14:34:39;3.20;99.90
57026;DHT22;43961;52.940;6.834;2022-11-20T14:37:10;3.20;99.90
57026;DHT22;43961;52.940;6.834;2022-11-20T14:39:42;3.10;99.90
57026;DHT22;43961;52.940;6.834;2022-11-20T14:42:19;3.10;99.90
57026;DHT22;43961;52.940;6.834;2022-11-20T14:44:45;3.00;99.90
57026;DHT22;43961;52.940;6.834;2022-11-20T14:47:17;2.90;99.90
57026;DHT22;43961;52.940;6.834;2022-11-20T14:49:44;2.80;99.90
57026;DHT22;43961;52.940;6.834;2022-11-20T14:52:16;2.70;99.90
57026;DHT22;43961;52.940;6.834;2022-11-20T14:54:44;2.60;99.90
57026;DHT22;43961;52.940;6.834;2022-11-20T14:57:21;2.50;99.90
57026;DHT22;43961;52.940;6.834;2022-11-20T14:59:47;2.50;99.90
57026;DHT22;43961;52.940;6.834;2022-11-20T15:02:14;2.40;99.90
57026;DHT22;43961;52.940;6.834;2022-11-20T15:04:47;2.30;99.90
57026;DHT22;43961;52.940;6.834;2022-11-20T15:07:27;2.30;99.90
57026;DHT22;43961;52.940;6.834;2022-11-20T15:10:10;2.30;99.90
57026;DHT22;43961;52.940;6.834;2022-11-20T15:12:51;2.20;99.90
57026;DHT22;43961;52.940;6.834;2022-11-20T15:15:21;2.20;99.90
57026;DHT22;43961;52.940;6.834;2022-11-20T15:17:48;2.20;99.90
57026;DHT22;43961;52.940;6.834;2022-11-20T15:20:15;2.10;99.90
57026;DHT22;43961;52.940;6.834;2022-11-20T15:22:42;2.10;99.90
57026;DHT22;43961;52.940;6.834;2022-11-20T15:25:15;2.10;99.90
57026;DHT22;43961;52.940;6.834;2022-11-20T15:27:43;2.00;99.90
57026;DHT22;43961;52.940;6.834;2022-11-20T15:30:14;1.90;99.90
57026;DHT22;43961;52.940;6.834;2022-11-20T15:32:40;1.90;99.90
57026;DHT22;43961;52.940;6.834;2022-11-20T15:35:06;1.80;99.90
57026;DHT22;43961;52.940;6.834;2022-11-20T15:37:32;1.90;99.90
57026;DHT22;43961;52.940;6.834;2022-11-20T15:39:58;1.90;99.90
57026;DHT22;43961;52.940;6.834;2022-11-20T15:42:23;2.00;99.90
57026;DHT22;43961;52.940;6.834;2022-11-20T15:44:49;1.90;99.90
57026;DHT22;43961;52.940;6.834;2022-11-20T15:47:15;1.90;99.90
57026;DHT22;43961;52.940;6.834;2022-11-20T15:49:42;1.90;99.90
57026;DHT22;43961;52.940;6.834;2022-11-20T15:52:10;1.80;99.90
57026;DHT22;43961;52.940;6.834;2022-11-20T15:54:35;1.80;99.90
57026;DHT22;43961;52.940;6.834;2022-11-20T15:57:01;1.80;99.90
57026;DHT22;43961;52.940;6.834;2022-11-20T15:59:28;1.70;99.90
57026;DHT22;43961;52.940;6.834;2022-11-20T16:01:53;1.70;99.90
57026;DHT22;43961;52.940;6.834;2022-11-20T16:04:19;1.70;99.90
57026;DHT22;43961;52.940;6.834;2022-11-20T16:06:45;1.60;99.90
57026;DHT22;43961;52.940;6.834;2022-11-20T16:09:11;1.60;99.90
57026;DHT22;43961;52.940;6.834;2022-11-20T16:11:39;1.60;99.90
57026;DHT22;43961;52.940;6.834;2022-11-20T16:14:05;1.60;99.90
57026;DHT22;43961;52.940;6.834;2022-11-20T16:16:50;1.60;99.90
57026;DHT22;43961;52.940;6.834;2022-11-20T16:19:16;1.50;99.90
57026;DHT22;43961;52.940;6.834;2022-11-20T16:21:43;1.60;99.90
57026;DHT22;43961;52.940;6.834;2022-11-20T16:24:11;1.60;99.90
57026;DHT22;43961;52.940;6.834;2022-11-20T16:26:38;1.60;99.90
57026;DHT22;43961;52.940;6.834;2022-11-20T16:29:05;1.60;99.90
57026;DHT22;43961;52.940;6.834;2022-11-20T16:31:32;1.60;99.90
57026;DHT22;43961;52.940;6.834;2022-11-20T16:33:59;1.60;99.90
57026;DHT22;43961;52.940;6.834;2022-11-20T16:36:26;1.60;99.90
57026;DHT22;43961;52.940;6.834;2022-11-20T16:39:01;1.60;99.90
57026;DHT22;43961;52.940;6.834;2022-11-20T16:41:30;1.60;99.90
57026;DHT22;43961;52.940;6.834;2022-11-20T16:43:58;1.60;99.90
57026;DHT22;43961;52.940;6.834;2022-11-20T16:46:29;1.60;99.90
57026;DHT22;43961;52.940;6.834;2022-11-20T16:48:56;1.60;99.90
57026;DHT22;43961;52.940;6.834;2022-11-20T16:51:23;1.60;99.90
57026;DHT22;43961;52.940;6.834;2022-11-20T16:53:49;1.50;99.90
57026;DHT22;43961;52.940;6.834;2022-11-20T16:56:20;1.50;99.90
57026;DHT22;43961;52.940;6.834;2022-11-20T16:58:46;1.50;99.90
57026;DHT22;43961;52.940;6.834;2022-11-20T17:01:16;1.50;99.90
57026;DHT22;43961;52.940;6.834;2022-11-20T17:03:43;1.50;99.90
57026;DHT22;43961;52.940;6.834;2022-11-20T17:06:23;1.50;99.90
57026;DHT22;43961;52.940;6.834;2022-11-20T17:08:49;1.50;99.90
57026;DHT22;43961;52.940;6.834;2022-11-20T17:11:17;1.50;99.90
57026;DHT22;43961;52.940;6.834;2022-11-20T17:13:44;1.50;99.90
57026;DHT22;43961;52.940;6.834;2022-11-20T17:16:19;1.40;99.90